sensor_id;sensor_type;location;lat;lon;timestamp;P1;durP1;ratioP1;P2;durP2;ratioP2
21822;SDS011;11074;48.596;9.238;2023-02-22T00:01:29;10.15;;;5.82;;
21822;SDS011;11074;48.596;9.238;2023-02-22T00:04:00;11.60;;;6.72;;
21822;SDS011;11074;48.596;9.238;2023-02-22T00:06:30;10.23;;;6.82;;
21822;SDS011;11074;48.596;9.238;2023-02-22T00:08:57;11.20;;;6.60;;
21822;SDS011;11074;48.596;9.238;2023-02-22T00:11:23;10.70;;;6.63;;
21822;SDS011;11074;48.596;9.238;2023-02-22T00:13:49;9.77;;;5.97;;
21822;SDS011;11074;48.596;9.238;2023-02-22T00:16:16;10.55;;;5.60;;
21822;SDS011;11074;48.596;9.238;2023-02-22T00:18:45;10.00;;;6.07;;
21822;SDS011;11074;48.596;9.238;2023-02-22T00:21:13;10.68;;;5.82;;
21822;SDS011;11074;48.596;9.238;2023-02-22T00:23:42;12.00;;;7.50;;
21822;SDS011;11074;48.596;9.238;2023-02-22T00:26:10;10.23;;;7.15;;
21822;SDS011;11074;48.596;9.238;2023-02-22T00:28:42;11.02;;;7.63;;
21822;SDS011;11074;48.596;9.238;2023-02-22T00:31:10;11.98;;;6.95;;
21822;SDS011;11074;48.596;9.238;2023-02-22T00:33:37;9.77;;;5.90;;
21822;SDS011;11074;48.596;9.238;2023-02-22T00:36:03;9.68;;;6.07;;
21822;SDS011;11074;48.596;9.238;2023-02-22T00:38:29;12.07;;;6.45;;
21822;SDS011;11074;48.596;9.238;2023-02-22T00:40:55;10.55;;;6.20;;
21822;SDS011;11074;48.596;9.238;2023-02-22T00:43:20;11.43;;;6.35;;
21822;SDS011;11074;48.596;9.238;2023-02-22T00:45:46;11.40;;;6.05;;
21822;SDS011;11074;48.596;9.238;2023-02-22T00:48:13;9.48;;;6.25;;
21822;SDS011;11074;48.596;9.238;2023-02-22T00:50:39;11.95;;;7.53;;
21822;SDS011;11074;48.596;9.238;2023-02-22T00:53:05;14.90;;;7.43;;
21822;SDS011;11074;48.596;9.238;2023-02-22T00:55:32;13.98;;;7.60;;
21822;SDS011;11074;48.596;9.238;2023-02-22T00:58:00;10.57;;;6.07;;
21822;SDS011;11074;48.596;9.238;2023-02-22T01:00:34;10.27;;;5.20;;
21822;SDS011;11074;48.596;9.238;2023-02-22T01:03:04;8.85;;;5.25;;
21822;SDS011;11074;48.596;9.238;2023-02-22T01:05:32;8.55;;;5.00;;
21822;SDS011;11074;48.596;9.238;2023-02-22T01:07:58;8.95;;;5.13;;
21822;SDS011;11074;48.596;9.238;2023-02-22T01:10:27;8.80;;;5.10;;
21822;SDS011;11074;48.596;9.238;2023-02-22T01:12:55;10.32;;;5.03;;
21822;SDS011;11074;48.596;9.238;2023-02-22T01:15:24;7.53;;;4.72;;
21822;SDS011;11074;48.596;9.238;2023-02-22T01:17:54;10.98;;;4.97;;
21822;SDS011;11074;48.596;9.238;2023-02-22T01:20:22;8.70;;;4.68;;
21822;SDS011;11074;48.596;9.238;2023-02-22T01:22:50;8.45;;;4.90;;
21822;SDS011;11074;48.596;9.238;2023-02-22T01:25:19;9.45;;;4.68;;
21822;SDS011;11074;48.596;9.238;2023-02-22T01:27:48;8.75;;;4.82;;
21822;SDS011;11074;48.596;9.238;2023-02-22T01:30:18;7.47;;;4.47;;
21822;SDS011;11074;48.596;9.238;2023-02-22T01:32:47;8.88;;;4.90;;
21822;SDS011;11074;48.596;9.238;2023-02-22T01:35:16;9.15;;;4.88;;
21822;SDS011;11074;48.596;9.238;2023-02-22T01:37:45;11.38;;;5.00;;
21822;SDS011;11074;48.596;9.238;2023-02-22T01:40:16;8.75;;;4.55;;
21822;SDS011;11074;48.596;9.238;2023-02-22T01:42:50;8.77;;;4.63;;
21822;SDS011;11074;48.596;9.238;2023-02-22T01:48:05;9.80;;;4.60;;
21822;SDS011;11074;48.596;9.238;2023-02-22T01:50:58;10.60;;;4.82;;
21822;SDS011;11074;48.596;9.238;2023-02-22T01:53:35;8.90;;;4.75;;
21822;SDS011;11074;48.596;9.238;2023-02-22T01:56:25;8.35;;;4.90;;
21822;SDS011;11074;48.596;9.238;2023-02-22T01:59:00;10.02;;;5.35;;
21822;SDS011;11074;48.596;9.238;2023-02-22T02:01:34;9.20;;;4.43;;
21822;SDS011;11074;48.596;9.238;2023-02-22T02:04:04;10.30;;;4.90;;
21822;SDS011;11074;48.596;9.238;2023-02-22T02:06:35;9.10;;;4.57;;
21822;SDS011;11074;48.596;9.238;2023-02-22T02:09:11;10.88;;;4.47;;
21822;SDS011;11074;48.596;9.238;2023-02-22T02:12:11;9.27;;;4.80;;
21822;SDS011;11074;48.596;9.238;2023-02-22T02:14:41;8.68;;;4.85;;
21822;SDS011;11074;48.596;9.238;2023-02-22T02:17:08;7.97;;;4.85;;
21822;SDS011;11074;48.596;9.238;2023-02-22T02:25:13;9.85;;;4.82;;
21822;SDS011;11074;48.596;9.238;2023-02-22T02:28:25;7.50;;;4.60;;
21822;SDS011;11074;48.596;9.238;2023-02-22T02:31:04;7.45;;;4.80;;
21822;SDS011;11074;48.596;9.238;2023-02-22T02:34:04;7.35;;;4.78;;
21822;SDS011;11074;48.596;9.238;2023-02-22T02:37:07;7.68;;;4.80;;
21822;SDS011;11074;48.596;9.238;2023-02-22T02:45:40;8.38;;;5.10;;
21822;SDS011;11074;48.596;9.238;2023-02-22T02:48:19;9.20;;;4.97;;
21822;SDS011;11074;48.596;9.238;2023-02-22T02:50:51;7.35;;;4.90;;
21822;SDS011;11074;48.596;9.238;2023-02-22T02:53:21;7.90;;;4.85;;
21822;SDS011;11074;48.596;9.238;2023-02-22T02:56:02;9.50;;;5.10;;
21822;SDS011;11074;48.596;9.238;2023-02-22T02:58:28;8.35;;;4.60;;
21822;SDS011;11074;48.596;9.238;2023-02-22T03:00:56;10.45;;;4.30;;
21822;SDS011;11074;48.596;9.238;2023-02-22T03:03:45;9.45;;;4.40;;
21822;SDS011;11074;48.596;9.238;2023-02-22T03:06:44;7.65;;;4.72;;
21822;SDS011;11074;48.596;9.238;2023-02-22T03:09:36;8.32;;;4.47;;
21822;SDS011;11074;48.596;9.238;2023-02-22T03:14:59;9.57;;;4.10;;
21822;SDS011;11074;48.596;9.238;2023-02-22T03:17:39;6.93;;;4.50;;
21822;SDS011;11074;48.596;9.238;2023-02-22T03:20:31;7.30;;;4.60;;
21822;SDS011;11074;48.596;9.238;2023-02-22T03:26:07;10.73;;;4.32;;
21822;SDS011;11074;48.596;9.238;2023-02-22T03:28:39;8.70;;;5.10;;
21822;SDS011;11074;48.596;9.238;2023-02-22T03:31:15;6.90;;;4.82;;
21822;SDS011;11074;48.596;9.238;2023-02-22T03:34:18;9.00;;;4.85;;
21822;SDS011;11074;48.596;9.238;2023-02-22T03:36:49;7.53;;;4.22;;
21822;SDS011;11074;48.596;9.238;2023-02-22T03:39:32;6.95;;;4.68;;
21822;SDS011;11074;48.596;9.238;2023-02-22T03:42:06;6.10;;;4.28;;
21822;SDS011;11074;48.596;9.238;2023-02-22T03:44:39;8.13;;;4.70;;
21822;SDS011;11074;48.596;9.238;2023-02-22T03:47:10;6.95;;;4.38;;
21822;SDS011;11074;48.596;9.238;2023-02-22T03:49:48;6.25;;;4.07;;
21822;SDS011;11074;48.596;9.238;2023-02-22T03:52:26;7.82;;;4.53;;
21822;SDS011;11074;48.596;9.238;2023-02-22T03:54:51;7.72;;;4.60;;
21822;SDS011;11074;48.596;9.238;2023-02-22T03:57:39;6.13;;;3.88;;
21822;SDS011;11074;48.596;9.238;2023-02-22T04:00:09;7.15;;;4.43;;
21822;SDS011;11074;48.596;9.238;2023-02-22T04:02:43;8.00;;;4.50;;
21822;SDS011;11074;48.596;9.238;2023-02-22T04:05:09;8.30;;;4.47;;
21822;SDS011;11074;48.596;9.238;2023-02-22T04:07:35;6.55;;;4.50;;
21822;SDS011;11074;48.596;9.238;2023-02-22T04:10:00;10.80;;;4.63;;
21822;SDS011;11074;48.596;9.238;2023-02-22T04:12:27;6.25;;;4.30;;
21822;SDS011;11074;48.596;9.238;2023-02-22T04:14:53;8.00;;;4.15;;
21822;SDS011;11074;48.596;9.238;2023-02-22T04:17:18;8.05;;;4.43;;
21822;SDS011;11074;48.596;9.238;2023-02-22T04:19:44;10.75;;;4.57;;
21822;SDS011;11074;48.596;9.238;2023-02-22T04:22:10;7.75;;;4.57;;
21822;SDS011;11074;48.596;9.238;2023-02-22T04:24:36;8.20;;;4.72;;
21822;SDS011;11074;48.596;9.238;2023-02-22T04:27:02;9.50;;;4.60;;
21822;SDS011;11074;48.596;9.238;2023-02-22T04:29:28;8.27;;;4.22;;
21822;SDS011;11074;48.596;9.238;2023-02-22T04:31:54;9.07;;;4.35;;
21822;SDS011;11074;48.596;9.238;2023-02-22T04:34:20;8.18;;;4.40;;
21822;SDS011;11074;48.596;9.238;2023-02-22T04:36:46;7.72;;;4.60;;
21822;SDS011;11074;48.596;9.238;2023-02-22T04:39:11;6.35;;;4.18;;
21822;SDS011;11074;48.596;9.238;2023-02-22T04:41:37;7.13;;;4.50;;
21822;SDS011;11074;48.596;9.238;2023-02-22T04:44:03;6.78;;;4.43;;
21822;SDS011;11074;48.596;9.238;2023-02-22T04:46:29;8.00;;;4.32;;
21822;SDS011;11074;48.596;9.238;2023-02-22T04:48:55;8.02;;;4.05;;
21822;SDS011;11074;48.596;9.238;2023-02-22T04:51:21;8.13;;;4.70;;
21822;SDS011;11074;48.596;9.238;2023-02-22T04:53:48;9.23;;;4.35;;
21822;SDS011;11074;48.596;9.238;2023-02-22T04:56:15;7.88;;;4.80;;
21822;SDS011;11074;48.596;9.238;2023-02-22T04:58:42;9.57;;;5.05;;
21822;SDS011;11074;48.596;9.238;2023-02-22T05:01:08;7.47;;;4.57;;
21822;SDS011;11074;48.596;9.238;2023-02-22T05:03:36;6.75;;;4.50;;
21822;SDS011;11074;48.596;9.238;2023-02-22T05:06:02;7.53;;;4.53;;
21822;SDS011;11074;48.596;9.238;2023-02-22T05:08:28;8.35;;;4.43;;
21822;SDS011;11074;48.596;9.238;2023-02-22T05:10:53;7.32;;;4.50;;
21822;SDS011;11074;48.596;9.238;2023-02-22T05:13:19;7.53;;;4.40;;
21822;SDS011;11074;48.596;9.238;2023-02-22T05:15:45;10.85;;;5.03;;
21822;SDS011;11074;48.596;9.238;2023-02-22T05:18:12;7.05;;;4.35;;
21822;SDS011;11074;48.596;9.238;2023-02-22T05:20:38;13.93;;;5.35;;
21822;SDS011;11074;48.596;9.238;2023-02-22T05:23:04;7.65;;;4.45;;
21822;SDS011;11074;48.596;9.238;2023-02-22T05:25:30;9.85;;;5.30;;
21822;SDS011;11074;48.596;9.238;2023-02-22T05:27:59;10.00;;;4.65;;
21822;SDS011;11074;48.596;9.238;2023-02-22T05:32:59;10.18;;;4.97;;
21822;SDS011;11074;48.596;9.238;2023-02-22T05:35:26;10.60;;;5.13;;
21822;SDS011;11074;48.596;9.238;2023-02-22T05:37:53;7.32;;;4.50;;
21822;SDS011;11074;48.596;9.238;2023-02-22T05:40:21;7.15;;;4.22;;
21822;SDS011;11074;48.596;9.238;2023-02-22T05:42:50;8.50;;;4.90;;
21822;SDS011;11074;48.596;9.238;2023-02-22T05:45:18;7.38;;;4.50;;
21822;SDS011;11074;48.596;9.238;2023-02-22T05:47:47;8.77;;;4.78;;
21822;SDS011;11074;48.596;9.238;2023-02-22T05:50:13;6.30;;;4.32;;
21822;SDS011;11074;48.596;9.238;2023-02-22T05:52:39;8.27;;;4.70;;
21822;SDS011;11074;48.596;9.238;2023-02-22T05:55:05;8.35;;;4.63;;
21822;SDS011;11074;48.596;9.238;2023-02-22T05:57:33;9.07;;;5.20;;
21822;SDS011;11074;48.596;9.238;2023-02-22T05:59:59;7.60;;;4.60;;
21822;SDS011;11074;48.596;9.238;2023-02-22T06:02:26;8.48;;;5.00;;
21822;SDS011;11074;48.596;9.238;2023-02-22T06:04:51;7.60;;;4.75;;
21822;SDS011;11074;48.596;9.238;2023-02-22T06:07:17;7.22;;;4.55;;
21822;SDS011;11074;48.596;9.238;2023-02-22T06:09:43;7.43;;;4.60;;
21822;SDS011;11074;48.596;9.238;2023-02-22T06:12:09;6.55;;;4.50;;
21822;SDS011;11074;48.596;9.238;2023-02-22T06:14:35;8.00;;;4.65;;
21822;SDS011;11074;48.596;9.238;2023-02-22T06:17:01;9.68;;;5.10;;
21822;SDS011;11074;48.596;9.238;2023-02-22T06:19:27;8.23;;;4.85;;
21822;SDS011;11074;48.596;9.238;2023-02-22T06:21:54;10.43;;;5.32;;
21822;SDS011;11074;48.596;9.238;2023-02-22T06:24:24;10.05;;;5.30;;
21822;SDS011;11074;48.596;9.238;2023-02-22T06:26:54;7.68;;;5.38;;
21822;SDS011;11074;48.596;9.238;2023-02-22T06:29:22;10.25;;;5.65;;
21822;SDS011;11074;48.596;9.238;2023-02-22T06:31:49;12.63;;;6.15;;
21822;SDS011;11074;48.596;9.238;2023-02-22T06:34:15;7.82;;;5.60;;
21822;SDS011;11074;48.596;9.238;2023-02-22T06:36:41;12.85;;;8.57;;
21822;SDS011;11074;48.596;9.238;2023-02-22T06:39:08;13.55;;;9.35;;
21822;SDS011;11074;48.596;9.238;2023-02-22T06:41:38;12.45;;;7.25;;
21822;SDS011;11074;48.596;9.238;2023-02-22T06:44:05;11.57;;;7.10;;
21822;SDS011;11074;48.596;9.238;2023-02-22T06:46:31;10.40;;;6.38;;
21822;SDS011;11074;48.596;9.238;2023-02-22T06:48:56;11.07;;;6.40;;
21822;SDS011;11074;48.596;9.238;2023-02-22T06:51:24;11.27;;;7.50;;
21822;SDS011;11074;48.596;9.238;2023-02-22T06:53:51;11.65;;;6.63;;
21822;SDS011;11074;48.596;9.238;2023-02-22T06:56:17;10.65;;;7.03;;
21822;SDS011;11074;48.596;9.238;2023-02-22T06:58:43;14.68;;;7.88;;
21822;SDS011;11074;48.596;9.238;2023-02-22T07:01:10;11.93;;;7.18;;
21822;SDS011;11074;48.596;9.238;2023-02-22T07:03:36;10.73;;;6.88;;
21822;SDS011;11074;48.596;9.238;2023-02-22T07:06:02;9.00;;;5.38;;
21822;SDS011;11074;48.596;9.238;2023-02-22T07:08:30;10.52;;;6.35;;
21822;SDS011;11074;48.596;9.238;2023-02-22T07:10:56;10.45;;;5.85;;
21822;SDS011;11074;48.596;9.238;2023-02-22T07:13:21;10.25;;;5.80;;
21822;SDS011;11074;48.596;9.238;2023-02-22T07:15:47;11.02;;;6.05;;
21822;SDS011;11074;48.596;9.238;2023-02-22T07:18:13;9.30;;;6.03;;
21822;SDS011;11074;48.596;9.238;2023-02-22T07:20:40;8.52;;;5.90;;
21822;SDS011;11074;48.596;9.238;2023-02-22T07:23:06;8.95;;;5.53;;
21822;SDS011;11074;48.596;9.238;2023-02-22T07:25:32;10.05;;;5.72;;
21822;SDS011;11074;48.596;9.238;2023-02-22T07:27:58;10.07;;;5.70;;
21822;SDS011;11074;48.596;9.238;2023-02-22T07:30:28;9.77;;;5.80;;
21822;SDS011;11074;48.596;9.238;2023-02-22T07:32:57;8.82;;;5.30;;
21822;SDS011;11074;48.596;9.238;2023-02-22T07:35:35;9.93;;;6.13;;
21822;SDS011;11074;48.596;9.238;2023-02-22T07:38:07;8.30;;;5.20;;
21822;SDS011;11074;48.596;9.238;2023-02-22T07:40:34;10.00;;;5.75;;
21822;SDS011;11074;48.596;9.238;2023-02-22T07:43:02;8.35;;;5.22;;
21822;SDS011;11074;48.596;9.238;2023-02-22T07:45:41;9.45;;;5.38;;
21822;SDS011;11074;48.596;9.238;2023-02-22T07:48:09;9.57;;;5.47;;
21822;SDS011;11074;48.596;9.238;2023-02-22T07:50:36;8.27;;;5.03;;
21822;SDS011;11074;48.596;9.238;2023-02-22T07:53:04;9.27;;;5.10;;
21822;SDS011;11074;48.596;9.238;2023-02-22T07:55:34;8.88;;;5.28;;
21822;SDS011;11074;48.596;9.238;2023-02-22T07:58:01;9.75;;;5.85;;
21822;SDS011;11074;48.596;9.238;2023-02-22T08:00:31;9.77;;;5.68;;
21822;SDS011;11074;48.596;9.238;2023-02-22T08:03:03;8.55;;;5.45;;
21822;SDS011;11074;48.596;9.238;2023-02-22T08:05:33;10.35;;;5.82;;
21822;SDS011;11074;48.596;9.238;2023-02-22T08:08:02;10.55;;;5.68;;
21822;SDS011;11074;48.596;9.238;2023-02-22T08:10:28;11.60;;;5.63;;
21822;SDS011;11074;48.596;9.238;2023-02-22T08:12:54;8.15;;;5.53;;
21822;SDS011;11074;48.596;9.238;2023-02-22T08:15:22;8.77;;;6.18;;
21822;SDS011;11074;48.596;9.238;2023-02-22T08:17:52;10.73;;;6.10;;
21822;SDS011;11074;48.596;9.238;2023-02-22T08:20:19;10.43;;;5.72;;
21822;SDS011;11074;48.596;9.238;2023-02-22T08:22:46;11.50;;;6.72;;
21822;SDS011;11074;48.596;9.238;2023-02-22T08:25:14;9.25;;;5.80;;
21822;SDS011;11074;48.596;9.238;2023-02-22T08:27:42;9.57;;;6.00;;
21822;SDS011;11074;48.596;9.238;2023-02-22T08:30:16;8.27;;;5.57;;
21822;SDS011;11074;48.596;9.238;2023-02-22T08:32:46;11.02;;;6.28;;
21822;SDS011;11074;48.596;9.238;2023-02-22T08:35:13;9.48;;;6.05;;
21822;SDS011;11074;48.596;9.238;2023-02-22T08:37:42;11.10;;;5.93;;
21822;SDS011;11074;48.596;9.238;2023-02-22T08:40:10;10.65;;;6.10;;
21822;SDS011;11074;48.596;9.238;2023-02-22T08:42:37;9.75;;;6.07;;
21822;SDS011;11074;48.596;9.238;2023-02-22T08:45:03;9.80;;;5.90;;
21822;SDS011;11074;48.596;9.238;2023-02-22T08:47:29;12.48;;;5.65;;
21822;SDS011;11074;48.596;9.238;2023-02-22T08:49:55;12.60;;;6.30;;
21822;SDS011;11074;48.596;9.238;2023-02-22T08:52:20;11.95;;;6.70;;
21822;SDS011;11074;48.596;9.238;2023-02-22T08:54:46;12.85;;;6.53;;
21822;SDS011;11074;48.596;9.238;2023-02-22T08:57:13;9.40;;;5.85;;
21822;SDS011;11074;48.596;9.238;2023-02-22T08:59:39;11.15;;;5.78;;
21822;SDS011;11074;48.596;9.238;2023-02-22T09:02:05;10.65;;;5.75;;
21822;SDS011;11074;48.596;9.238;2023-02-22T09:04:39;9.63;;;6.03;;
21822;SDS011;11074;48.596;9.238;2023-02-22T09:07:05;11.32;;;5.97;;
21822;SDS011;11074;48.596;9.238;2023-02-22T09:09:30;8.75;;;5.82;;
21822;SDS011;11074;48.596;9.238;2023-02-22T09:11:56;11.10;;;5.97;;
21822;SDS011;11074;48.596;9.238;2023-02-22T09:14:22;11.40;;;5.57;;
21822;SDS011;11074;48.596;9.238;2023-02-22T09:16:47;9.90;;;6.00;;
21822;SDS011;11074;48.596;9.238;2023-02-22T09:19:13;10.38;;;5.80;;
21822;SDS011;11074;48.596;9.238;2023-02-22T09:21:39;11.00;;;5.78;;
21822;SDS011;11074;48.596;9.238;2023-02-22T09:24:05;10.18;;;6.07;;
21822;SDS011;11074;48.596;9.238;2023-02-22T09:26:34;8.70;;;5.32;;
21822;SDS011;11074;48.596;9.238;2023-02-22T09:29:04;8.23;;;5.15;;
21822;SDS011;11074;48.596;9.238;2023-02-22T09:31:36;9.20;;;5.40;;
21822;SDS011;11074;48.596;9.238;2023-02-22T09:34:05;12.73;;;5.53;;
21822;SDS011;11074;48.596;9.238;2023-02-22T09:36:38;11.82;;;5.57;;
21822;SDS011;11074;48.596;9.238;2023-02-22T09:39:07;8.85;;;5.00;;
21822;SDS011;11074;48.596;9.238;2023-02-22T09:42:24;9.30;;;5.22;;
21822;SDS011;11074;48.596;9.238;2023-02-22T09:47:46;12.07;;;5.55;;
21822;SDS011;11074;48.596;9.238;2023-02-22T09:50:31;10.60;;;5.95;;
21822;SDS011;11074;48.596;9.238;2023-02-22T09:56:00;8.68;;;5.40;;
21822;SDS011;11074;48.596;9.238;2023-02-22T09:58:35;9.93;;;5.20;;
21822;SDS011;11074;48.596;9.238;2023-02-22T10:07:35;11.52;;;5.57;;
21822;SDS011;11074;48.596;9.238;2023-02-22T10:10:00;8.90;;;5.50;;
21822;SDS011;11074;48.596;9.238;2023-02-22T10:22:10;10.38;;;5.30;;
21822;SDS011;11074;48.596;9.238;2023-02-22T10:24:43;7.97;;;5.13;;
21822;SDS011;11074;48.596;9.238;2023-02-22T10:27:27;10.57;;;5.32;;
21822;SDS011;11074;48.596;9.238;2023-02-22T10:30:22;11.02;;;5.40;;
21822;SDS011;11074;48.596;9.238;2023-02-22T10:33:05;7.72;;;5.15;;
21822;SDS011;11074;48.596;9.238;2023-02-22T10:35:45;12.00;;;5.38;;
21822;SDS011;11074;48.596;9.238;2023-02-22T10:40:56;9.27;;;5.53;;
21822;SDS011;11074;48.596;9.238;2023-02-22T10:43:57;13.82;;;5.70;;
21822;SDS011;11074;48.596;9.238;2023-02-22T10:46:26;9.80;;;5.13;;
21822;SDS011;11074;48.596;9.238;2023-02-22T10:48:54;10.80;;;5.80;;
21822;SDS011;11074;48.596;9.238;2023-02-22T10:51:26;9.55;;;5.28;;
21822;SDS011;11074;48.596;9.238;2023-02-22T10:59:12;12.52;;;5.55;;
21822;SDS011;11074;48.596;9.238;2023-02-22T11:02:35;8.80;;;4.70;;
21822;SDS011;11074;48.596;9.238;2023-02-22T11:04:57;8.30;;;5.45;;
21822;SDS011;11074;48.596;9.238;2023-02-22T11:07:29;13.07;;;5.50;;
21822;SDS011;11074;48.596;9.238;2023-02-22T11:09:59;10.32;;;5.68;;
21822;SDS011;11074;48.596;9.238;2023-02-22T11:12:38;9.45;;;5.13;;
21822;SDS011;11074;48.596;9.238;2023-02-22T11:17:40;11.52;;;5.82;;
21822;SDS011;11074;48.596;9.238;2023-02-22T11:20:17;9.52;;;4.88;;
21822;SDS011;11074;48.596;9.238;2023-02-22T11:22:49;10.25;;;5.03;;
21822;SDS011;11074;48.596;9.238;2023-02-22T11:25:19;11.82;;;5.40;;
21822;SDS011;11074;48.596;9.238;2023-02-22T11:27:50;10.13;;;5.50;;
21822;SDS011;11074;48.596;9.238;2023-02-22T11:35:36;8.27;;;5.45;;
21822;SDS011;11074;48.596;9.238;2023-02-22T11:38:26;8.68;;;5.22;;
21822;SDS011;11074;48.596;9.238;2023-02-22T11:41:06;10.02;;;5.55;;
21822;SDS011;11074;48.596;9.238;2023-02-22T11:46:56;11.18;;;5.40;;
21822;SDS011;11074;48.596;9.238;2023-02-22T11:49:31;11.98;;;5.60;;
21822;SDS011;11074;48.596;9.238;2023-02-22T11:52:11;9.48;;;5.60;;
21822;SDS011;11074;48.596;9.238;2023-02-22T12:01:01;7.93;;;5.40;;
21822;SDS011;11074;48.596;9.238;2023-02-22T12:03:59;9.80;;;5.63;;
21822;SDS011;11074;48.596;9.238;2023-02-22T12:10:07;10.65;;;5.88;;
21822;SDS011;11074;48.596;9.238;2023-02-22T12:16:12;12.40;;;6.20;;
21822;SDS011;11074;48.596;9.238;2023-02-22T12:19:10;10.63;;;5.55;;
21822;SDS011;11074;48.596;9.238;2023-02-22T12:21:47;13.10;;;6.07;;
21822;SDS011;11074;48.596;9.238;2023-02-22T12:24:23;12.68;;;5.50;;
21822;SDS011;11074;48.596;9.238;2023-02-22T12:27:14;9.93;;;6.15;;
21822;SDS011;11074;48.596;9.238;2023-02-22T12:29:54;8.85;;;5.57;;
21822;SDS011;11074;48.596;9.238;2023-02-22T12:32:38;9.05;;;5.68;;
21822;SDS011;11074;48.596;9.238;2023-02-22T12:35:18;12.07;;;5.88;;
21822;SDS011;11074;48.596;9.238;2023-02-22T12:37:58;12.90;;;6.25;;
21822;SDS011;11074;48.596;9.238;2023-02-22T12:41:04;9.02;;;6.10;;
21822;SDS011;11074;48.596;9.238;2023-02-22T12:44:07;9.80;;;5.65;;
21822;SDS011;11074;48.596;9.238;2023-02-22T12:47:03;9.57;;;5.80;;
21822;SDS011;11074;48.596;9.238;2023-02-22T12:49:46;10.88;;;5.53;;
21822;SDS011;11074;48.596;9.238;2023-02-22T12:52:33;9.85;;;5.85;;
21822;SDS011;11074;48.596;9.238;2023-02-22T12:55:21;9.20;;;5.43;;
21822;SDS011;11074;48.596;9.238;2023-02-22T13:01:35;10.48;;;6.03;;
21822;SDS011;11074;48.596;9.238;2023-02-22T13:04:10;11.70;;;6.82;;
21822;SDS011;11074;48.596;9.238;2023-02-22T13:06:40;9.27;;;5.47;;
21822;SDS011;11074;48.596;9.238;2023-02-22T13:15:42;11.05;;;6.60;;
21822;SDS011;11074;48.596;9.238;2023-02-22T13:18:31;12.43;;;6.57;;
21822;SDS011;11074;48.596;9.238;2023-02-22T13:21:30;12.93;;;6.30;;
21822;SDS011;11074;48.596;9.238;2023-02-22T13:24:16;12.68;;;6.95;;
21822;SDS011;11074;48.596;9.238;2023-02-22T13:27:07;12.30;;;6.93;;
21822;SDS011;11074;48.596;9.238;2023-02-22T13:29:46;10.68;;;6.88;;
21822;SDS011;11074;48.596;9.238;2023-02-22T13:38:39;11.57;;;7.28;;
21822;SDS011;11074;48.596;9.238;2023-02-22T13:48:06;12.02;;;7.63;;
21822;SDS011;11074;48.596;9.238;2023-02-22T13:51:07;12.10;;;7.80;;
21822;SDS011;11074;48.596;9.238;2023-02-22T13:54:11;11.98;;;7.57;;
21822;SDS011;11074;48.596;9.238;2023-02-22T13:56:42;11.05;;;7.38;;
21822;SDS011;11074;48.596;9.238;2023-02-22T14:02:06;15.32;;;8.13;;
21822;SDS011;11074;48.596;9.238;2023-02-22T14:08:05;12.93;;;7.30;;
21822;SDS011;11074;48.596;9.238;2023-02-22T14:11:02;12.10;;;8.10;;
21822;SDS011;11074;48.596;9.238;2023-02-22T14:16:20;14.02;;;8.18;;
21822;SDS011;11074;48.596;9.238;2023-02-22T14:21:57;19.60;;;9.75;;
21822;SDS011;11074;48.596;9.238;2023-02-22T14:24:40;14.90;;;8.80;;
21822;SDS011;11074;48.596;9.238;2023-02-22T14:27:09;13.82;;;9.57;;
21822;SDS011;11074;48.596;9.238;2023-02-22T14:29:37;16.25;;;8.85;;
21822;SDS011;11074;48.596;9.238;2023-02-22T14:32:19;14.55;;;8.63;;
21822;SDS011;11074;48.596;9.238;2023-02-22T14:34:55;13.50;;;9.15;;
21822;SDS011;11074;48.596;9.238;2023-02-22T14:37:25;14.38;;;9.07;;
21822;SDS011;11074;48.596;9.238;2023-02-22T14:40:09;14.70;;;8.73;;
21822;SDS011;11074;48.596;9.238;2023-02-22T14:43:00;14.23;;;9.00;;
21822;SDS011;11074;48.596;9.238;2023-02-22T14:45:43;12.02;;;8.52;;
21822;SDS011;11074;48.596;9.238;2023-02-22T14:48:24;13.65;;;8.27;;
21822;SDS011;11074;48.596;9.238;2023-02-22T14:51:25;14.35;;;8.93;;
21822;SDS011;11074;48.596;9.238;2023-02-22T14:54:01;14.55;;;8.45;;
21822;SDS011;11074;48.596;9.238;2023-02-22T14:56:49;15.70;;;7.88;;
21822;SDS011;11074;48.596;9.238;2023-02-22T14:59:55;16.83;;;8.73;;
21822;SDS011;11074;48.596;9.238;2023-02-22T15:02:43;14.70;;;8.18;;
21822;SDS011;11074;48.596;9.238;2023-02-22T15:05:12;14.85;;;9.00;;
21822;SDS011;11074;48.596;9.238;2023-02-22T15:07:51;12.50;;;8.43;;
21822;SDS011;11074;48.596;9.238;2023-02-22T15:12:57;13.05;;;8.48;;
21822;SDS011;11074;48.596;9.238;2023-02-22T15:15:33;13.60;;;8.82;;
21822;SDS011;11074;48.596;9.238;2023-02-22T15:18:02;13.65;;;9.73;;
21822;SDS011;11074;48.596;9.238;2023-02-22T15:20:40;14.65;;;8.52;;
21822;SDS011;11074;48.596;9.238;2023-02-22T15:23:06;16.45;;;9.23;;
21822;SDS011;11074;48.596;9.238;2023-02-22T15:25:32;16.83;;;8.68;;
21822;SDS011;11074;48.596;9.238;2023-02-22T15:28:02;14.65;;;9.05;;
21822;SDS011;11074;48.596;9.238;2023-02-22T15:30:30;14.80;;;8.93;;
21822;SDS011;11074;48.596;9.238;2023-02-22T15:33:08;13.63;;;8.00;;
21822;SDS011;11074;48.596;9.238;2023-02-22T15:35:38;15.27;;;9.05;;
21822;SDS011;11074;48.596;9.238;2023-02-22T15:38:05;14.75;;;8.75;;
21822;SDS011;11074;48.596;9.238;2023-02-22T15:40:44;14.30;;;8.27;;
21822;SDS011;11074;48.596;9.238;2023-02-22T15:43:16;12.73;;;8.05;;
21822;SDS011;11074;48.596;9.238;2023-02-22T15:45:52;11.80;;;7.65;;
21822;SDS011;11074;48.596;9.238;2023-02-22T15:48:19;16.45;;;8.20;;
21822;SDS011;11074;48.596;9.238;2023-02-22T15:53:44;14.15;;;8.23;;
21822;SDS011;11074;48.596;9.238;2023-02-22T15:56:14;14.25;;;7.90;;
21822;SDS011;11074;48.596;9.238;2023-02-22T15:58:57;16.25;;;7.88;;
21822;SDS011;11074;48.596;9.238;2023-02-22T16:01:36;15.40;;;7.97;;
21822;SDS011;11074;48.596;9.238;2023-02-22T16:04:06;15.60;;;8.02;;
21822;SDS011;11074;48.596;9.238;2023-02-22T16:06:41;13.90;;;8.38;;
21822;SDS011;11074;48.596;9.238;2023-02-22T16:09:08;14.73;;;7.85;;
21822;SDS011;11074;48.596;9.238;2023-02-22T16:11:50;17.55;;;8.82;;
21822;SDS011;11074;48.596;9.238;2023-02-22T16:19:49;18.75;;;11.45;;
21822;SDS011;11074;48.596;9.238;2023-02-22T16:25:12;19.00;;;12.55;;
21822;SDS011;11074;48.596;9.238;2023-02-22T16:27:47;22.17;;;14.30;;
21822;SDS011;11074;48.596;9.238;2023-02-22T16:30:38;24.55;;;16.70;;
21822;SDS011;11074;48.596;9.238;2023-02-22T16:33:05;22.58;;;15.05;;
21822;SDS011;11074;48.596;9.238;2023-02-22T16:35:40;15.63;;;8.85;;
21822;SDS011;11074;48.596;9.238;2023-02-22T16:38:15;17.38;;;9.80;;
21822;SDS011;11074;48.596;9.238;2023-02-22T16:40:46;19.13;;;11.27;;
21822;SDS011;11074;48.596;9.238;2023-02-22T16:43:23;15.07;;;10.25;;
21822;SDS011;11074;48.596;9.238;2023-02-22T16:45:55;15.50;;;9.07;;
21822;SDS011;11074;48.596;9.238;2023-02-22T16:48:22;16.20;;;8.77;;
21822;SDS011;11074;48.596;9.238;2023-02-22T16:50:50;17.95;;;10.23;;
21822;SDS011;11074;48.596;9.238;2023-02-22T16:53:18;17.70;;;9.38;;
21822;SDS011;11074;48.596;9.238;2023-02-22T16:55:48;15.63;;;9.18;;
21822;SDS011;11074;48.596;9.238;2023-02-22T16:58:21;19.08;;;9.10;;
21822;SDS011;11074;48.596;9.238;2023-02-22T17:00:51;21.42;;;9.85;;
21822;SDS011;11074;48.596;9.238;2023-02-22T17:03:21;16.38;;;9.00;;
21822;SDS011;11074;48.596;9.238;2023-02-22T17:05:49;14.35;;;9.02;;
21822;SDS011;11074;48.596;9.238;2023-02-22T17:08:15;17.25;;;9.27;;
21822;SDS011;11074;48.596;9.238;2023-02-22T17:10:41;15.93;;;8.77;;
21822;SDS011;11074;48.596;9.238;2023-02-22T17:13:07;17.05;;;9.48;;
21822;SDS011;11074;48.596;9.238;2023-02-22T17:15:33;16.02;;;8.38;;
21822;SDS011;11074;48.596;9.238;2023-02-22T17:18:01;15.27;;;8.63;;
21822;SDS011;11074;48.596;9.238;2023-02-22T17:20:37;15.00;;;9.25;;